Time;durP1;ratioP1;P1;durP2;ratioP2;P2;SDS_P1;SDS_P2;PMS_P1;PMS_P2;Temp;Humidity;BMP_temperature;BMP_pressure;BME280_temperature;BME280_humidity;BME280_pressure;Samples;Min_cycle;Max_cycle;Signal;HPM_P1;HPM_P2
2022/01/13 00:02:40;;;;;;;36.28;18.50;;;;;;;-0.63;100.00;100773.84;10305621;28;20066;-79
2022/01/13 00:07:41;;;;;;;35.15;18.23;;;;;;;-0.57;100.00;100770.44;10285149;28;20479;-79
2022/01/13 00:12:43;;;;;;;34.13;18.73;;;;;;;-0.61;100.00;100782.38;10294698;28;20045;-79
2022/01/13 00:17:57;;;;;;;32.10;18.80;;;;;;;-0.62;100.00;100780.75;10292811;28;20590;-77
2022/01/13 00:28:20;;;;;;;30.33;16.02;;;;;;;-0.74;100.00;100772.50;10278890;28;20574;-79
2022/01/13 00:33:25;;;;;;;31.83;17.77;;;;;;;-0.95;100.00;100783.03;10276587;28;20133;-77
2022/01/13 00:38:27;;;;;;;31.10;17.03;;;;;;;-1.08;100.00;100801.34;10283272;28;20042;-78
2022/01/13 00:43:28;;;;;;;33.13;16.88;;;;;;;-1.19;100.00;100815.78;10281981;28;20133;-78
2022/01/13 00:48:29;;;;;;;34.05;17.83;;;;;;;-1.23;100.00;100811.91;10281138;28;20494;-78
2022/01/13 00:53:29;;;;;;;31.13;17.27;;;;;;;-1.30;100.00;100809.16;10271962;28;20054;-78
2022/01/13 00:58:33;;;;;;;29.00;16.13;;;;;;;-1.39;100.00;100807.63;10277090;28;20051;-77
2022/01/13 01:03:34;;;;;;;31.58;18.15;;;;;;;-1.47;100.00;100808.53;10283203;28;20422;-78
2022/01/13 01:08:35;;;;;;;34.75;19.00;;;;;;;-1.53;100.00;100804.03;10294784;28;20394;-77
2022/01/13 01:13:38;;;;;;;36.35;18.42;;;;;;;-1.64;100.00;100804.47;10294646;28;20062;-78
2022/01/13 01:18:54;;;;;;;37.38;20.10;;;;;;;-1.66;100.00;100797.72;10292015;28;20054;-79
2022/01/13 01:39:14;;;;;;;41.03;21.33;;;;;;;-1.25;100.00;100792.81;10291432;28;20054;-79
2022/01/13 01:44:21;;;;;;;43.38;20.88;;;;;;;-1.20;100.00;100793.88;10290186;28;20051;-79
2022/01/13 01:49:25;;;;;;;38.38;21.48;;;;;;;-1.25;100.00;100795.47;10295813;28;20039;-78
2022/01/13 01:54:27;;;;;;;41.85;21.30;;;;;;;-1.22;100.00;100789.81;10291347;28;20069;-79
2022/01/13 01:59:31;;;;;;;35.10;19.00;;;;;;;-1.19;100.00;100769.19;10291658;28;20069;-78
2022/01/13 02:04:31;;;;;;;38.72;21.15;;;;;;;-1.18;100.00;100770.03;10293650;28;20395;-82
2022/01/13 02:09:35;;;;;;;38.28;20.05;;;;;;;-1.19;100.00;100774.47;10272871;28;20058;-78
2022/01/13 02:19:58;;;;;;;38.72;19.90;;;;;;;-1.18;100.00;100767.38;10295463;28;20034;-77
2022/01/13 02:24:59;;;;;;;39.67;19.67;;;;;;;-1.11;100.00;100765.63;10289402;28;20051;-77
2022/01/13 02:30:01;;;;;;;40.03;21.52;;;;;;;-1.13;100.00;100759.72;10289214;28;20067;-79
2022/01/13 02:35:02;;;;;;;37.60;20.08;;;;;;;-1.10;100.00;100748.81;10306808;28;20061;-78
2022/01/13 02:40:03;;;;;;;38.53;20.40;;;;;;;-1.12;100.00;100750.00;10294739;28;20390;-77
2022/01/13 02:45:15;;;;;;;39.63;21.35;;;;;;;-1.13;100.00;100753.63;10294843;28;20531;-78
2022/01/13 02:50:15;;;;;;;35.83;19.02;;;;;;;-1.02;100.00;100746.06;10276220;28;20094;-78
2022/01/13 02:55:15;;;;;;;34.80;19.00;;;;;;;-0.98;100.00;100734.16;10297741;28;20054;-79
2022/01/13 03:00:17;;;;;;;37.40;20.25;;;;;;;-0.98;100.00;100734.16;10299072;28;20078;-79
2022/01/13 03:05:18;;;;;;;37.90;21.13;;;;;;;-1.07;100.00;100737.09;10302199;28;20106;-77
2022/01/13 03:10:19;;;;;;;36.55;20.60;;;;;;;-0.96;100.00;100726.06;10316713;28;20123;-79
2022/01/13 03:15:19;;;;;;;42.25;21.73;;;;;;;-1.09;100.00;100729.38;10323787;28;20536;-78
2022/01/13 03:20:20;;;;;;;38.17;21.50;;;;;;;-1.10;100.00;100734.81;10319938;28;20076;-78
2022/01/13 03:25:23;;;;;;;40.97;21.42;;;;;;;-1.15;100.00;100732.75;10311623;28;20049;-76
2022/01/13 03:30:26;;;;;;;43.20;23.63;;;;;;;-1.22;100.00;100737.13;10304541;28;20043;-79
2022/01/13 03:35:26;;;;;;;45.42;23.50;;;;;;;-1.18;100.00;100748.94;10325237;28;20031;-79
2022/01/13 03:40:28;;;;;;;45.70;23.52;;;;;;;-1.21;100.00;100742.19;10328135;28;20121;-79
2022/01/13 03:45:28;;;;;;;45.00;22.30;;;;;;;-1.10;100.00;100734.81;10317888;28;20516;-78
2022/01/13 03:50:29;;;;;;;45.60;22.05;;;;;;;-1.21;100.00;100729.03;10290178;28;20130;-79
2022/01/13 03:55:35;;;;;;;43.50;23.42;;;;;;;-1.22;100.00;100727.41;10290677;28;20062;-78
2022/01/13 04:01:14;;;;;;;45.85;22.55;;;;;;;-1.20;100.00;100730.66;10282704;28;20115;-78
2022/01/13 04:06:14;;;;;;;47.75;24.75;;;;;;;-1.19;100.00;100734.94;10291605;28;20046;-79
2022/01/13 04:11:32;;;;;;;46.05;24.17;;;;;;;-1.15;100.00;100746.75;10291326;28;20050;-81
2022/01/13 04:16:36;;;;;;;46.63;23.30;;;;;;;-1.15;100.00;100751.19;10290549;28;20050;-79
2022/01/13 04:21:39;;;;;;;50.97;24.95;;;;;;;-1.20;100.00;100753.56;10298412;28;20043;-80
2022/01/13 04:26:42;;;;;;;49.22;23.42;;;;;;;-1.18;100.00;100760.28;10292930;28;20047;-79
2022/01/13 04:31:48;;;;;;;51.40;24.65;;;;;;;-1.16;100.00;100768.00;10291352;28;20039;-79
2022/01/13 04:36:49;;;;;;;46.47;23.65;;;;;;;-1.11;100.00;100775.34;10282812;28;20550;-78
2022/01/13 04:41:49;;;;;;;49.15;24.17;;;;;;;-1.02;100.00;100784.78;10279960;28;20069;-77
2022/01/13 04:46:52;;;;;;;48.45;24.15;;;;;;;-0.96;100.00;100782.22;10295804;28;20052;-78
2022/01/13 04:51:54;;;;;;;45.20;22.47;;;;;;;-0.94;100.00;100774.94;10298554;28;20062;-79
2022/01/13 04:57:07;;;;;;;44.55;22.17;;;;;;;-0.84;100.00;100771.19;10295920;28;20297;-77
2022/01/13 05:02:08;;;;;;;43.93;22.20;;;;;;;-0.83;100.00;100763.09;10301821;28;20046;-78
2022/01/13 05:07:08;;;;;;;43.85;24.00;;;;;;;-0.81;100.00;100765.56;10294740;28;20046;-78
2022/01/13 05:12:09;;;;;;;43.80;22.05;;;;;;;-0.88;100.00;100761.03;10295160;28;20634;-79
2022/01/13 05:17:32;;;;;;;44.92;24.10;;;;;;;-0.92;100.00;100761.56;10302548;28;20525;-80
2022/01/13 05:22:30;;;;;;;40.35;22.40;;;;;;;-0.84;100.00;100772.00;10302602;28;20137;-78
2022/01/13 05:27:30;;;;;;;43.10;22.05;;;;;;;-0.87;100.00;100772.38;10293877;28;20066;-79
2022/01/13 05:32:31;;;;;;;38.92;21.13;;;;;;;-0.84;100.00;100774.63;10289031;28;20054;-77
2022/01/13 05:37:31;;;;;;;40.00;20.60;;;;;;;-0.79;100.00;100772.25;10290485;28;20113;-77
2022/01/13 05:42:32;;;;;;;39.55;21.23;;;;;;;-0.77;100.00;100775.53;10286809;28;20046;-78
2022/01/13 05:47:32;;;;;;;38.47;21.60;;;;;;;-0.83;100.00;100781.53;10297711;28;20604;-77
2022/01/13 05:52:36;;;;;;;34.83;19.92;;;;;;;-0.78;100.00;100781.81;10291820;28;20105;-76
2022/01/13 05:57:37;;;;;;;39.47;20.98;;;;;;;-0.71;100.00;100779.25;10290124;28;20077;-78
2022/01/13 06:02:39;;;;;;;34.35;19.40;;;;;;;-0.66;100.00;100782.13;10290243;28;20121;-77
2022/01/13 06:07:40;;;;;;;41.05;22.15;;;;;;;-0.66;100.00;100785.56;10294743;28;20043;-77
2022/01/13 06:12:40;;;;;;;35.08;20.95;;;;;;;-0.73;100.00;100789.97;10298152;28;20149;-78
2022/01/13 06:17:42;;;;;;;37.78;20.90;;;;;;;-0.74;100.00;100790.16;10300496;28;20047;-78
2022/01/13 06:22:45;;;;;;;38.08;20.88;;;;;;;-0.64;100.00;100791.50;10298364;28;20529;-76
2022/01/13 06:27:46;;;;;;;42.67;22.30;;;;;;;-0.70;100.00;100808.06;10294890;28;20046;-77
2022/01/13 06:32:46;;;;;;;38.50;21.73;;;;;;;-0.70;100.00;100805.41;10294636;28;20046;-79
2022/01/13 06:37:47;;;;;;;36.75;20.98;;;;;;;-0.63;100.00;100806.31;10296336;28;20058;-77
2022/01/13 06:42:47;;;;;;;38.47;19.45;;;;;;;-0.57;100.00;100810.81;10293147;28;20034;-79
2022/01/13 06:47:48;;;;;;;34.92;20.63;;;;;;;-0.61;100.00;100814.03;10294536;28;20067;-78
2022/01/13 06:52:49;;;;;;;38.20;19.95;;;;;;;-0.54;100.00;100812.28;10296938;28;20106;-79
2022/01/13 06:57:49;;;;;;;41.55;21.00;;;;;;;-0.49;100.00;100825.72;10288426;28;20043;-77
2022/01/13 07:02:52;;;;;;;38.67;19.67;;;;;;;-0.29;100.00;100821.44;10290074;28;20053;-77
2022/01/13 07:07:52;;;;;;;38.33;18.98;;;;;;;-0.36;100.00;100830.31;10286353;28;20043;-75
2022/01/13 07:12:53;;;;;;;33.80;19.15;;;;;;;-0.33;100.00;100832.56;10288856;28;20046;-74
2022/01/13 07:17:53;;;;;;;34.97;19.08;;;;;;;-0.11;100.00;100841.28;10293103;28;20042;-80
2022/01/13 07:22:54;;;;;;;35.03;18.40;;;;;;;-0.08;100.00;100849.66;10284558;28;20047;-79
2022/01/13 07:27:55;;;;;;;32.60;18.77;;;;;;;-0.04;100.00;100844.81;10296799;28;20149;-79
2022/01/13 07:32:55;;;;;;;32.33;18.30;;;;;;;-0.05;100.00;100841.34;10286373;28;20041;-82
2022/01/13 07:37:56;;;;;;;32.65;18.55;;;;;;;0.01;100.00;100837.13;10287912;28;20050;-80
2022/01/13 07:42:57;;;;;;;35.25;18.45;;;;;;;0.07;100.00;100841.63;10288765;28;20049;-79
2022/01/13 07:47:57;;;;;;;32.45;17.55;;;;;;;0.05;100.00;100840.19;10307249;28;20082;-79
2022/01/13 07:52:59;;;;;;;32.33;17.98;;;;;;;0.01;100.00;100841.59;10301726;28;20035;-80
2022/01/13 07:58:00;;;;;;;31.38;17.13;;;;;;;0.20;100.00;100852.31;10303936;28;20047;-81
2022/01/13 08:03:00;;;;;;;28.75;15.45;;;;;;;0.11;100.00;100844.72;10286378;28;20575;-79
2022/01/13 08:08:01;;;;;;;28.00;15.60;;;;;;;0.10;100.00;100838.63;10294795;28;20046;-78
2022/01/13 08:13:01;;;;;;;30.20;16.75;;;;;;;-0.05;100.00;100849.25;10295722;28;20057;-79
2022/01/13 08:23:21;;;;;;;36.58;17.30;;;;;;;0.13;100.00;100856.72;10295349;28;20485;-78
2022/01/13 08:28:25;;;;;;;28.85;15.77;;;;;;;0.25;100.00;100864.94;10290253;28;20377;-79
2022/01/13 08:33:26;;;;;;;31.98;16.08;;;;;;;0.26;100.00;100864.75;10283340;28;20047;-82
2022/01/13 08:38:27;;;;;;;29.77;16.75;;;;;;;0.39;100.00;100850.00;10284594;28;20553;-83
2022/01/13 08:43:29;;;;;;;31.40;16.77;;;;;;;0.36;100.00;100848.56;10272566;28;20051;-79
2022/01/13 08:48:30;;;;;;;31.17;16.17;;;;;;;0.59;100.00;100843.03;10259039;28;20505;-80
2022/01/13 08:53:30;;;;;;;29.65;15.73;;;;;;;0.35;100.00;100841.63;10279541;28;20043;-80
2022/01/13 08:58:31;;;;;;;32.40;16.88;;;;;;;0.16;100.00;100844.97;10301747;28;20043;-79
2022/01/13 09:03:32;;;;;;;29.35;15.75;;;;;;;0.46;100.00;100840.31;10325866;28;20557;-82
2022/01/13 09:08:37;;;;;;;29.85;15.50;;;;;;;0.60;100.00;100830.63;10314054;28;20081;-79
2022/01/13 09:13:41;;;;;;;32.88;16.38;;;;;;;0.58;100.00;100828.19;10317180;28;20059;-79
2022/01/13 09:23:56;;;;;;;33.53;17.10;;;;;;;0.84;100.00;100830.16;10281658;28;20039;-80
2022/01/13 09:28:56;;;;;;;35.42;15.82;;;;;;;0.81;100.00;100836.63;10289482;28;20043;-79
2022/01/13 09:33:57;;;;;;;33.85;17.50;;;;;;;0.96;100.00;100840.97;10287555;28;20121;-79
2022/01/13 09:39:01;;;;;;;32.67;16.45;;;;;;;0.98;100.00;100850.34;10290828;28;20031;-80
2022/01/13 09:44:04;;;;;;;34.17;17.38;;;;;;;0.83;100.00;100847.03;10288611;28;20049;-79
2022/01/13 09:49:06;;;;;;;36.08;18.00;;;;;;;1.05;100.00;100855.66;10291236;28;20035;-78
2022/01/13 09:54:07;;;;;;;33.28;16.52;;;;;;;0.87;100.00;100858.00;10292998;28;20077;-78
2022/01/13 09:59:08;;;;;;;33.25;18.23;;;;;;;0.68;100.00;100855.06;10296469;28;20050;-80
2022/01/13 10:04:10;;;;;;;36.05;17.48;;;;;;;0.94;100.00;100869.44;10282334;28;20058;-79
2022/01/13 10:09:11;;;;;;;28.17;16.10;;;;;;;1.22;100.00;100861.44;10292647;28;20078;-78
2022/01/13 10:19:34;;;;;;;32.83;17.33;;;;;;;1.31;100.00;100886.69;10302751;28;20107;-79
2022/01/13 10:24:38;;;;;;;33.65;17.50;;;;;;;1.22;100.00;100888.69;10286074;28;20046;-79
2022/01/13 10:29:44;;;;;;;31.88;17.38;;;;;;;1.03;100.00;100892.06;10304067;28;20047;-79
2022/01/13 10:34:49;;;;;;;31.95;16.33;;;;;;;0.81;100.00;100884.22;10294806;28;20049;-80
2022/01/13 10:40:01;;;;;;;30.48;16.00;;;;;;;0.90;100.00;100876.13;10305673;28;20050;-79
2022/01/13 10:45:02;;;;;;;29.60;16.50;;;;;;;1.11;100.00;100873.41;10299056;28;20042;-79
2022/01/13 10:50:11;;;;;;;31.65;17.25;;;;;;;1.04;100.00;100860.13;10300831;28;20043;-79
2022/01/13 10:55:16;;;;;;;32.15;16.60;;;;;;;0.98;100.00;100860.09;10333283;28;20023;-81
2022/01/13 11:00:17;;;;;;;29.20;15.98;;;;;;;1.20;100.00;100844.94;10339025;28;20035;-83
2022/01/13 11:05:17;;;;;;;36.85;17.63;;;;;;;1.33;100.00;100831.75;10324989;28;20089;-81
2022/01/13 11:10:19;;;;;;;32.35;17.50;;;;;;;1.49;100.00;100831.38;10332025;28;20046;-83
2022/01/13 11:15:20;;;;;;;30.58;16.75;;;;;;;1.42;100.00;100839.31;10335126;28;20046;-82
2022/01/13 11:20:22;;;;;;;30.10;15.55;;;;;;;1.83;100.00;100842.81;10336006;28;20090;-80
2022/01/13 11:25:26;;;;;;;34.03;17.52;;;;;;;2.04;100.00;100839.19;10330144;28;20099;-81
2022/01/13 11:30:28;;;;;;;30.25;17.23;;;;;;;2.23;100.00;100825.94;10311212;28;20323;-81
2022/01/13 11:35:33;;;;;;;28.58;16.75;;;;;;;2.83;100.00;100823.13;10300065;28;20043;-78
2022/01/13 11:40:37;;;;;;;28.13;16.08;;;;;;;2.89;100.00;100814.34;10281890;28;20053;-79
2022/01/13 11:45:40;;;;;;;29.23;16.73;;;;;;;2.95;100.00;100810.06;10301716;28;20050;-83
2022/01/13 11:50:46;;;;;;;24.25;14.82;;;;;;;3.32;100.00;100801.28;10315470;28;20083;-80
2022/01/13 11:56:04;;;;;;;25.83;15.45;;;;;;;3.63;100.00;100792.50;10299649;28;20046;-81
2022/01/13 12:01:35;;;;;;;26.35;15.50;;;;;;;3.05;100.00;100778.56;10293237;28;20077;-79
2022/01/13 12:06:43;;;;;;;26.27;15.50;;;;;;;3.00;100.00;100775.72;10296709;28;20043;-78
2022/01/13 12:11:50;;;;;;;27.25;16.95;;;;;;;3.22;100.00;100768.28;10300025;28;20563;-79
2022/01/13 12:17:08;;;;;;;26.05;16.27;;;;;;;3.12;100.00;100768.75;10283369;28;20042;-79
2022/01/13 12:22:48;;;;;;;28.30;15.63;;;;;;;3.29;100.00;100753.94;10285415;28;20038;-79
2022/01/13 12:27:52;;;;;;;27.90;16.23;;;;;;;3.14;100.00;100764.03;10268307;28;20077;-79
2022/01/13 12:32:56;;;;;;;26.52;15.80;;;;;;;3.38;100.00;100735.91;10261966;28;20578;-78
2022/01/13 12:38:05;;;;;;;27.67;16.33;;;;;;;3.04;100.00;100735.31;10270934;28;20063;-78
2022/01/13 12:43:50;;;;;;;28.23;16.38;;;;;;;2.87;100.00;100731.53;10276885;28;20126;-79
2022/01/13 12:48:56;;;;;;;27.40;16.02;;;;;;;3.26;100.00;100721.69;10285521;28;20043;-78
2022/01/13 12:53:56;;;;;;;24.27;15.80;;;;;;;2.99;100.00;100708.59;10281895;28;20062;-80
2022/01/13 12:59:06;;;;;;;27.08;16.08;;;;;;;2.82;100.00;100716.25;10283012;28;20049;-78
2022/01/13 13:04:12;;;;;;;26.42;15.57;;;;;;;2.97;100.00;100712.50;10291993;28;20070;-78
2022/01/13 13:09:16;;;;;;;33.78;17.30;;;;;;;2.93;100.00;100706.81;10289688;28;20054;-79
2022/01/13 13:14:32;;;;;;;31.92;16.20;;;;;;;3.01;100.00;100709.19;10292900;28;20042;-79
2022/01/13 13:19:39;;;;;;;28.60;17.35;;;;;;;3.16;100.00;100708.09;10289148;28;20126;-79
2022/01/13 13:24:41;;;;;;;27.70;16.58;;;;;;;3.19;100.00;100695.19;10290846;28;20129;-78
2022/01/13 13:29:42;;;;;;;27.75;16.95;;;;;;;3.04;100.00;100700.03;10286389;28;20152;-80
2022/01/13 13:34:45;;;;;;;29.00;17.02;;;;;;;3.03;100.00;100693.91;10289838;28;20046;-79
2022/01/13 13:39:46;;;;;;;30.55;16.38;;;;;;;3.18;100.00;100706.84;10279277;28;20130;-79
2022/01/13 13:44:48;;;;;;;24.63;15.70;;;;;;;2.84;100.00;100708.09;10284479;28;20193;-80
2022/01/13 13:49:58;;;;;;;30.27;16.88;;;;;;;2.86;100.00;100703.38;10292359;28;20047;-80
2022/01/13 13:55:07;;;;;;;29.75;16.65;;;;;;;2.80;100.00;100709.53;10283574;28;20129;-79
2022/01/13 14:00:10;;;;;;;29.02;16.70;;;;;;;2.69;100.00;100700.41;10285998;28;20254;-78
2022/01/13 14:05:15;;;;;;;28.67;16.40;;;;;;;2.55;100.00;100701.47;10291297;28;20142;-79
2022/01/13 14:10:18;;;;;;;27.00;16.50;;;;;;;2.36;100.00;100697.88;10295602;28;20808;-80
2022/01/13 14:15:35;;;;;;;29.38;16.38;;;;;;;2.20;100.00;100695.72;10292409;28;20049;-81
2022/01/13 14:20:45;;;;;;;28.15;16.17;;;;;;;2.11;100.00;100707.56;10283483;28;20127;-80
2022/01/13 14:26:14;;;;;;;30.70;17.58;;;;;;;2.11;100.00;100704.91;10327567;28;20043;-78
2022/01/13 14:31:15;;;;;;;30.25;16.95;;;;;;;1.94;100.00;100694.75;10281017;28;20057;-77
2022/01/13 14:36:19;;;;;;;30.02;17.20;;;;;;;1.87;100.00;100704.53;10280995;28;20041;-79
2022/01/13 14:41:30;;;;;;;31.35;17.10;;;;;;;1.91;100.00;100718.97;10278102;28;20043;-78
2022/01/13 14:46:42;;;;;;;28.90;16.00;;;;;;;1.85;100.00;100698.63;10279052;28;20039;-77
2022/01/13 14:51:47;;;;;;;31.95;16.15;;;;;;;1.89;100.00;100707.78;10283779;28;20117;-79
2022/01/13 14:56:48;;;;;;;30.80;15.73;;;;;;;1.70;100.00;100709.44;10286729;28;20043;-79
2022/01/13 15:01:50;;;;;;;29.15;15.80;;;;;;;1.73;100.00;100710.84;10281749;28;20149;-79
2022/01/13 15:06:50;;;;;;;29.00;15.10;;;;;;;1.64;100.00;100714.72;10284245;28;20049;-79
2022/01/13 15:11:51;;;;;;;29.42;15.35;;;;;;;1.43;100.00;100718.41;10307031;28;20893;-79
2022/01/13 15:16:55;;;;;;;32.38;16.67;;;;;;;1.41;100.00;100708.03;10323849;28;20120;-78
2022/01/13 15:21:58;;;;;;;30.90;17.17;;;;;;;1.33;100.00;100704.75;10319916;28;20537;-79
2022/01/13 15:26:59;;;;;;;34.78;16.73;;;;;;;1.22;100.00;100706.19;10329013;28;20457;-78
2022/01/13 15:31:59;;;;;;;30.60;16.52;;;;;;;1.09;100.00;100709.59;10329438;28;20165;-78
2022/01/13 15:37:00;;;;;;;28.95;16.08;;;;;;;1.02;100.00;100718.56;10343621;28;20057;-78
2022/01/13 15:42:01;;;;;;;29.92;16.98;;;;;;;0.89;100.00;100705.28;10335013;28;20466;-78
2022/01/13 15:47:04;;;;;;;34.22;17.83;;;;;;;0.70;100.00;100707.69;10335311;28;20166;-78
2022/01/13 15:52:05;;;;;;;30.50;15.70;;;;;;;0.68;100.00;100712.34;10327653;28;20450;-78
2022/01/13 15:57:06;;;;;;;30.92;15.98;;;;;;;0.56;100.00;100712.13;10305471;28;20050;-78
2022/01/13 16:02:08;;;;;;;28.92;15.43;;;;;;;0.42;100.00;100713.06;10328898;28;20057;-80
2022/01/13 16:07:08;;;;;;;27.65;15.60;;;;;;;0.35;100.00;100717.50;10351613;28;20093;-79
2022/01/13 16:12:09;;;;;;;29.98;16.33;;;;;;;0.31;100.00;100728.66;10328922;28;20058;-78
2022/01/13 16:17:12;;;;;;;29.42;16.15;;;;;;;0.21;100.00;100723.72;10323823;28;20061;-78
2022/01/13 16:22:13;;;;;;;28.63;15.90;;;;;;;0.19;100.00;100733.69;10323582;28;20050;-82
2022/01/13 16:27:13;;;;;;;32.08;16.45;;;;;;;0.11;100.00;100732.00;10313091;28;20074;-79
2022/01/13 16:32:21;;;;;;;28.75;15.88;;;;;;;0.02;100.00;100743.72;10326352;28;20061;-78
2022/01/13 16:37:24;;;;;;;28.02;14.25;;;;;;;-0.07;100.00;100736.97;10332011;28;20181;-78
2022/01/13 16:42:25;;;;;;;28.90;15.15;;;;;;;-0.17;100.00;100736.50;10317760;28;20050;-79
2022/01/13 16:47:26;;;;;;;29.02;15.48;;;;;;;-0.25;100.00;100741.91;10322773;28;20509;-81
2022/01/13 16:52:31;;;;;;;27.98;15.60;;;;;;;-0.29;100.00;100742.28;10324118;28;20105;-80
2022/01/13 16:57:34;;;;;;;28.98;16.23;;;;;;;-0.34;100.00;100744.69;10320967;28;20058;-78
2022/01/13 17:02:35;;;;;;;32.47;16.17;;;;;;;-0.41;100.00;100743.00;10323913;28;20133;-81
2022/01/13 17:07:36;;;;;;;30.30;15.95;;;;;;;-0.48;100.00;100737.66;10319816;28;20522;-78
2022/01/13 17:12:38;;;;;;;31.83;16.92;;;;;;;-0.42;100.00;100734.25;10330341;28;20517;-79
2022/01/13 17:17:38;;;;;;;34.83;17.58;;;;;;;-0.51;100.00;100709.03;10326731;28;20264;-80
2022/01/13 17:22:40;;;;;;;34.75;17.58;;;;;;;-0.62;100.00;100712.19;10310967;28;20116;-79
2022/01/13 17:27:42;;;;;;;33.35;17.42;;;;;;;-0.73;100.00;100707.41;10310457;28;20181;-78
2022/01/13 17:32:44;;;;;;;35.83;18.35;;;;;;;-0.73;100.00;100702.97;10307565;28;20050;-79
2022/01/13 17:37:51;;;;;;;34.77;17.10;;;;;;;-0.77;100.00;100700.88;10306560;28;20051;-78
2022/01/13 17:42:55;;;;;;;32.33;16.75;;;;;;;-0.80;100.00;100698.63;10346020;28;20102;-81
2022/01/13 17:47:56;;;;;;;31.35;16.77;;;;;;;-0.87;100.00;100696.75;10344106;28;20050;-79
2022/01/13 17:52:58;;;;;;;37.58;18.40;;;;;;;-0.84;100.00;100708.72;10350230;28;20129;-79
2022/01/13 17:58:01;;;;;;;34.70;18.57;;;;;;;-0.91;100.00;100706.06;10335012;28;20066;-79
2022/01/13 18:03:02;;;;;;;40.37;19.30;;;;;;;-0.91;100.00;100716.59;10328744;28;20046;-79
2022/01/13 18:08:03;;;;;;;39.05;18.70;;;;;;;-0.89;100.00;100713.75;10320648;28;20403;-79
2022/01/13 18:13:05;;;;;;;35.28;16.85;;;;;;;-0.99;100.00;100711.44;10328432;28;20569;-80
2022/01/13 18:18:05;;;;;;;35.70;18.77;;;;;;;-1.04;100.00;100705.91;10329690;28;20061;-80
2022/01/13 18:23:06;;;;;;;36.00;18.13;;;;;;;-1.06;100.00;100697.38;10333217;28;20062;-82
2022/01/13 18:28:07;;;;;;;37.47;19.13;;;;;;;-1.08;100.00;100702.03;10352198;28;20050;-79
2022/01/13 18:33:10;;;;;;;39.97;19.60;;;;;;;-1.13;100.00;100688.56;10352897;28;20069;-80
2022/01/13 18:38:10;;;;;;;43.17;21.83;;;;;;;-1.18;100.00;100678.63;10354968;28;20058;-80
2022/01/13 18:43:12;;;;;;;44.25;21.67;;;;;;;-1.09;100.00;100676.69;10353415;28;20066;-81
2022/01/13 18:48:13;;;;;;;48.92;21.08;;;;;;;-1.13;100.00;100675.41;10347669;28;20046;-79
2022/01/13 18:53:18;;;;;;;49.83;23.52;;;;;;;-1.06;100.00;100670.22;10357183;28;20054;-79
2022/01/13 18:58:22;;;;;;;52.17;23.58;;;;;;;-1.06;100.00;100671.03;10331279;28;20050;-79
2022/01/13 19:03:25;;;;;;;52.95;24.05;;;;;;;-1.17;100.00;100671.53;10336893;28;20061;-78
2022/01/13 19:08:26;;;;;;;51.20;23.35;;;;;;;-1.24;100.00;100660.09;10340138;28;20053;-80
2022/01/13 19:13:26;;;;;;;50.28;22.77;;;;;;;-1.29;100.00;100665.91;10350181;28;20051;-79
2022/01/13 19:18:37;;;;;;;47.30;22.27;;;;;;;-1.35;100.00;100664.03;10324900;28;20092;-81
2022/01/13 19:23:40;;;;;;;49.00;22.83;;;;;;;-1.39;100.00;100665.41;10331813;28;20096;-79
2022/01/13 19:28:43;;;;;;;43.88;20.60;;;;;;;-1.42;100.00;100664.97;10403817;28;20722;-80
2022/01/13 19:33:46;;;;;;;48.22;22.05;;;;;;;-1.50;100.00;100658.81;10424303;28;20690;-83
2022/01/13 19:38:46;;;;;;;46.17;22.33;;;;;;;-1.54;100.00;100652.28;10438590;28;20061;-81
2022/01/13 19:43:47;;;;;;;52.17;22.85;;;;;;;-1.55;100.00;100657.75;10434523;28;20045;-82
2022/01/13 19:48:50;;;;;;;48.87;22.20;;;;;;;-1.55;100.00;100657.75;10427811;28;20061;-80
2022/01/13 19:53:51;;;;;;;52.35;23.48;;;;;;;-1.56;100.00;100662.16;10426101;28;20054;-84
2022/01/13 19:58:52;;;;;;;47.05;22.60;;;;;;;-1.62;100.00;100656.84;10423526;28;20106;-81
2022/01/13 20:03:52;;;;;;;59.88;24.63;;;;;;;-1.75;100.00;100665.38;10414217;28;20108;-80
2022/01/13 20:08:53;;;;;;;64.93;26.50;;;;;;;-1.79;100.00;100672.03;10397476;28;20049;-78
2022/01/13 20:13:53;;;;;;;51.50;23.35;;;;;;;-1.90;100.00;100657.53;10427016;28;20056;-80
2022/01/13 20:18:54;;;;;;;56.28;25.73;;;;;;;-1.93;100.00;100649.16;10411973;28;20033;-79
2022/01/13 20:23:54;;;;;;;48.88;22.83;;;;;;;-1.94;100.00;100650.97;10412680;28;20132;-78
2022/01/13 20:28:55;;;;;;;40.90;20.27;;;;;;;-2.05;100.00;100649.63;10417793;28;20071;-77
2022/01/13 20:33:58;;;;;;;43.20;22.23;;;;;;;-2.09;100.00;100647.56;10432575;28;20096;-76
2022/01/13 20:39:02;;;;;;;47.47;21.50;;;;;;;-2.08;100.00;100652.63;10422686;28;20527;-79
2022/01/13 20:44:03;;;;;;;47.92;22.63;;;;;;;-2.05;100.00;100647.00;10403593;28;20045;-77
2022/01/13 20:49:05;;;;;;;55.60;23.58;;;;;;;-2.12;100.00;100648.72;10399664;28;20431;-76
2022/01/13 20:54:07;;;;;;;55.03;25.27;;;;;;;-2.13;100.00;100647.09;10402759;28;20049;-78
2022/01/13 20:59:07;;;;;;;48.13;23.27;;;;;;;-2.15;100.00;100637.75;10410945;28;20059;-78
2022/01/13 21:04:08;;;;;;;54.65;24.52;;;;;;;-2.08;100.00;100639.47;10445398;28;20026;-83
2022/01/13 21:09:09;;;;;;;54.85;22.80;;;;;;;-2.12;100.00;100637.38;10444893;28;20038;-76
2022/01/13 21:14:10;;;;;;;57.63;24.60;;;;;;;-2.17;100.00;100635.31;10408774;28;20045;-75
2022/01/13 21:19:10;;;;;;;52.90;23.38;;;;;;;-2.19;100.00;100626.78;10408428;28;20041;-79
2022/01/13 21:24:12;;;;;;;52.22;24.48;;;;;;;-2.21;100.00;100622.69;10409559;28;20107;-77
2022/01/13 21:29:12;;;;;;;50.70;21.77;;;;;;;-2.22;100.00;100624.50;10410440;28;20053;-77
2022/01/13 21:34:13;;;;;;;56.03;24.13;;;;;;;-2.24;100.00;100636.22;10416537;28;20403;-76
2022/01/13 21:39:15;;;;;;;56.30;23.90;;;;;;;-2.20;100.00;100630.38;10407468;28;20049;-76
2022/01/13 21:44:16;;;;;;;57.08;25.52;;;;;;;-2.22;100.00;100615.78;10407322;28;20050;-77
2022/01/13 21:49:17;;;;;;;55.75;21.98;;;;;;;-2.22;100.00;100621.06;10405538;28;20075;-76
2022/01/13 21:54:17;;;;;;;56.78;23.88;;;;;;;-2.28;100.00;100613.91;10406447;28;20504;-76
2022/01/13 21:59:18;;;;;;;62.70;26.55;;;;;;;-2.17;100.00;100606.38;10408043;28;20044;-77
2022/01/13 22:04:18;;;;;;;62.70;24.83;;;;;;;-2.32;100.00;100603.72;10413581;28;20053;-76
2022/01/13 22:14:40;;;;;;;55.17;23.33;;;;;;;-2.36;100.00;100599.84;10415536;28;20044;-76
2022/01/13 22:19:41;;;;;;;60.10;24.92;;;;;;;-2.36;100.00;100597.22;10408687;28;20129;-78
2022/01/13 22:24:42;;;;;;;62.33;23.98;;;;;;;-2.38;100.00;100598.38;10404491;28;20783;-77
2022/01/13 22:29:43;;;;;;;61.00;25.38;;;;;;;-2.42;100.00;100603.19;10407702;28;20084;-77
2022/01/13 22:34:44;;;;;;;60.35;24.98;;;;;;;-2.09;100.00;100592.31;10404696;28;20116;-83
2022/01/13 22:39:45;;;;;;;58.95;24.02;;;;;;;-2.33;100.00;100601.28;10403539;28;20457;-79
2022/01/13 22:44:46;;;;;;;51.80;22.52;;;;;;;-2.40;100.00;100609.06;10405799;28;20046;-77
2022/01/13 22:49:48;;;;;;;61.97;25.85;;;;;;;-2.39;100.00;100604.63;10405724;28;20045;-76
2022/01/13 22:54:49;;;;;;;58.13;24.23;;;;;;;-2.49;100.00;100598.81;10402634;28;20050;-75
2022/01/13 22:59:51;;;;;;;55.90;23.20;;;;;;;-2.49;100.00;100599.66;10408135;28;20346;-77
2022/01/13 23:04:52;;;;;;;55.08;22.95;;;;;;;-2.55;100.00;100594.31;10406450;28;20477;-76
2022/01/13 23:09:52;;;;;;;54.35;23.00;;;;;;;-2.61;100.00;100585.31;10401704;28;20049;-76
2022/01/13 23:25:15;;;;;;;61.30;23.52;;;;;;;-2.63;100.00;100580.25;10406483;28;20492;-76
2022/01/13 23:30:15;;;;;;;72.47;24.93;;;;;;;-2.62;100.00;100568.75;10408255;28;20057;-78